createdAt,value
2019-03-03T00:00:16.401Z,52.73
2019-03-03T00:02:17.987Z,52.78
2019-03-03T00:04:19.590Z,52.95
2019-03-03T00:06:21.197Z,53.17
2019-03-03T00:08:24.544Z,53.46
2019-03-03T00:10:24.500Z,53.64
2019-03-03T00:12:26.102Z,53.56
2019-03-03T00:14:27.694Z,53.71
2019-03-03T00:16:29.304Z,53.77
2019-03-03T00:18:31.069Z,53.92
2019-03-03T00:20:32.682Z,53.90
2019-03-03T00:22:34.291Z,53.90
2019-03-03T00:24:35.918Z,53.72
2019-03-03T00:26:37.531Z,53.82
2019-03-03T00:28:39.158Z,53.85
2019-03-03T00:30:40.787Z,54.02
2019-03-03T00:32:42.397Z,54.44
2019-03-03T00:34:44.030Z,54.11
2019-03-03T00:36:51.272Z,54.46
2019-03-03T00:38:55.540Z,54.52
2019-03-03T00:40:57.166Z,54.61
2019-03-03T00:43:17.446Z,54.65
2019-03-03T00:45:33.954Z,54.81
2019-03-03T00:47:37.300Z,54.93
2019-03-03T00:49:41.446Z,55.38
2019-03-03T00:51:44.932Z,55.09
2019-03-03T00:53:52.250Z,55.29
2019-03-03T00:55:58.345Z,55.74
2019-03-03T00:58:03.384Z,55.51
2019-03-03T01:00:07.633Z,55.41
2019-03-03T01:02:11.744Z,55.86
2019-03-03T01:04:13.337Z,55.64
2019-03-03T01:06:14.965Z,55.80
2019-03-03T01:08:24.117Z,55.76
2019-03-03T01:10:26.309Z,55.56
2019-03-03T01:12:28.554Z,55.71
2019-03-03T01:14:31.007Z,55.69
2019-03-03T01:16:35.392Z,55.71
2019-03-03T01:18:42.584Z,55.58
2019-03-03T01:20:46.591Z,55.30
2019-03-03T01:22:53.992Z,55.82
2019-03-03T01:24:56.141Z,56.52
2019-03-03T01:26:57.756Z,55.33
2019-03-03T01:28:59.373Z,54.60
2019-03-03T01:31:00.966Z,54.62
2019-03-03T01:33:02.589Z,54.68
2019-03-03T01:35:04.213Z,55.26
2019-03-03T01:37:05.822Z,55.03
2019-03-03T01:39:07.448Z,55.79
2019-03-03T01:41:09.049Z,55.77
2019-03-03T01:43:10.678Z,55.98
2019-03-03T01:45:12.270Z,55.91
2019-03-03T01:47:13.883Z,56.01
2019-03-03T01:49:15.477Z,56.04
2019-03-03T01:51:17.082Z,56.39
2019-03-03T01:53:18.709Z,56.15
2019-03-03T01:55:20.320Z,56.28
2019-03-03T01:57:21.914Z,56.33
2019-03-03T01:59:23.506Z,56.38
2019-03-03T02:01:25.111Z,56.81
2019-03-03T02:03:26.745Z,56.84
2019-03-03T02:05:28.350Z,57.43
2019-03-03T02:07:29.947Z,57.44
2019-03-03T02:09:31.541Z,57.69
2019-03-03T02:11:33.200Z,57.60
2019-03-03T02:13:34.793Z,57.62
2019-03-03T02:15:36.431Z,57.96
2019-03-03T02:17:38.026Z,58.05
2019-03-03T02:19:39.653Z,58.31
2019-03-03T02:21:41.250Z,57.97
2019-03-03T02:23:42.890Z,58.35
2019-03-03T02:25:44.521Z,58.54
2019-03-03T02:27:46.128Z,58.63
2019-03-03T02:29:47.763Z,58.99
2019-03-03T02:31:49.378Z,58.88
2019-03-03T02:33:50.979Z,58.86
2019-03-03T02:35:52.575Z,59.00
2019-03-03T02:37:54.169Z,58.80
2019-03-03T02:39:55.795Z,58.87
2019-03-03T02:41:57.387Z,58.61
2019-03-03T02:43:59.024Z,58.65
2019-03-03T02:46:00.621Z,58.47
2019-03-03T02:48:02.222Z,58.56
2019-03-03T02:50:03.846Z,58.38
2019-03-03T02:52:05.456Z,58.41
2019-03-03T02:54:07.064Z,58.00
2019-03-03T02:56:08.662Z,58.27
2019-03-03T02:58:10.268Z,58.20
2019-03-03T03:00:11.904Z,57.94
2019-03-03T03:02:13.503Z,58.01
2019-03-03T03:04:15.100Z,58.61
2019-03-03T03:06:16.746Z,58.49
2019-03-03T03:08:19.144Z,58.27
2019-03-03T03:10:26.381Z,58.01
2019-03-03T03:12:27.979Z,58.41
2019-03-03T03:14:30.444Z,58.12
2019-03-03T03:16:34.561Z,57.91
2019-03-03T03:18:39.152Z,57.88
2019-03-03T03:20:50.682Z,57.63
2019-03-03T03:22:52.315Z,57.87
2019-03-03T03:24:59.475Z,57.81
2019-03-03T03:27:07.600Z,57.89
2019-03-03T03:29:14.814Z,58.21
2019-03-03T03:31:26.379Z,58.27
2019-03-03T03:33:31.679Z,58.32
2019-03-03T03:35:50.101Z,58.52
2019-03-03T03:37:51.743Z,58.50
2019-03-03T03:40:09.125Z,58.54
2019-03-03T03:42:10.741Z,58.81
2019-03-03T03:44:16.295Z,58.81
2019-03-03T03:46:22.593Z,59.01
2019-03-03T03:48:26.875Z,58.96
2019-03-03T03:50:34.219Z,59.33
2019-03-03T03:52:39.319Z,59.64
2019-03-03T03:54:40.919Z,59.88
2019-03-03T03:56:42.554Z,59.81
2019-03-03T03:58:45.722Z,59.82
2019-03-03T04:00:47.324Z,59.95
2019-03-03T04:02:50.906Z,60.64
2019-03-03T04:04:52.556Z,60.91
2019-03-03T04:06:58.869Z,60.68
2019-03-03T04:09:06.459Z,60.42
2019-03-03T04:11:10.517Z,60.89
2019-03-03T04:13:12.784Z,60.82
2019-03-03T04:15:14.979Z,60.96
2019-03-03T04:17:20.615Z,60.45
2019-03-03T04:19:22.223Z,60.37
2019-03-03T04:21:29.699Z,60.19
2019-03-03T04:23:36.853Z,59.86
2019-03-03T04:25:41.238Z,60.05
2019-03-03T04:27:44.726Z,59.64
2019-03-03T04:30:00.327Z,59.63
2019-03-03T04:32:16.607Z,59.38
2019-03-03T04:34:18.191Z,58.74
2019-03-03T04:36:22.337Z,59.01
2019-03-03T04:38:29.737Z,59.12
2019-03-03T04:40:42.126Z,59.00
2019-03-03T04:42:48.688Z,58.69
2019-03-03T04:44:53.945Z,59.03
2019-03-03T04:46:58.217Z,58.75
2019-03-03T04:49:14.695Z,58.83
2019-03-03T04:51:17.079Z,58.76
2019-03-03T04:53:28.594Z,58.95
2019-03-03T04:55:33.822Z,58.95
2019-03-03T04:57:41.005Z,59.24
2019-03-03T04:59:44.340Z,59.19
2019-03-03T05:01:56.617Z,59.75
2019-03-03T05:03:58.267Z,59.71
2019-03-03T05:06:16.632Z,59.93
2019-03-03T05:08:18.343Z,60.49
2019-03-03T05:10:20.564Z,60.50
2019-03-03T05:12:38.894Z,60.71
2019-03-03T05:14:40.489Z,60.44
2019-03-03T05:16:42.130Z,60.21
2019-03-03T05:18:43.730Z,60.36
2019-03-03T05:20:45.325Z,60.72
2019-03-03T05:22:46.909Z,60.75
2019-03-03T05:24:48.493Z,60.84
2019-03-03T05:26:50.118Z,61.00
2019-03-03T05:28:51.724Z,61.08
2019-03-03T05:30:53.332Z,60.94
2019-03-03T05:32:54.926Z,60.96
2019-03-03T05:34:56.533Z,61.06
2019-03-03T05:36:58.181Z,60.50
2019-03-03T05:38:59.841Z,60.63
2019-03-03T05:41:01.484Z,60.68
2019-03-03T05:43:03.077Z,60.70
2019-03-03T05:45:04.673Z,60.75
2019-03-03T05:47:06.285Z,60.86
2019-03-03T05:49:07.910Z,60.51
2019-03-03T05:51:09.517Z,61.15
2019-03-03T05:53:11.115Z,60.66
2019-03-03T05:55:12.710Z,61.16
2019-03-03T05:57:14.315Z,61.12
2019-03-03T05:59:15.959Z,60.15
2019-03-03T06:01:17.544Z,60.03
2019-03-03T06:03:19.138Z,60.14
2019-03-03T06:05:20.738Z,60.21
2019-03-03T06:07:22.334Z,60.19
2019-03-03T06:09:23.958Z,60.09
2019-03-03T06:11:25.582Z,60.14
2019-03-03T06:13:27.197Z,60.30
2019-03-03T06:15:28.825Z,60.40
2019-03-03T06:17:30.428Z,60.51
2019-03-03T06:19:32.012Z,60.32
2019-03-03T06:21:33.637Z,60.43
2019-03-03T06:23:35.246Z,60.68
2019-03-03T06:25:36.883Z,60.79
2019-03-03T06:27:38.495Z,60.65
2019-03-03T06:29:40.105Z,60.75
2019-03-03T06:31:41.712Z,60.83
2019-03-03T06:33:43.310Z,60.61
2019-03-03T06:35:44.905Z,60.77
2019-03-03T06:37:46.502Z,60.52
2019-03-03T06:39:48.098Z,60.75
2019-03-03T06:41:49.680Z,60.76
2019-03-03T06:43:51.280Z,60.40
2019-03-03T06:45:52.924Z,60.50
2019-03-03T06:47:54.517Z,60.42
2019-03-03T06:49:56.112Z,60.14
2019-03-03T06:51:57.720Z,60.30
2019-03-03T06:53:59.318Z,60.00
2019-03-03T06:56:00.953Z,60.13
2019-03-03T06:58:02.577Z,60.34
2019-03-03T07:00:04.185Z,60.11
2019-03-03T07:02:05.795Z,60.24
2019-03-03T07:04:07.398Z,60.14
2019-03-03T07:06:09.044Z,59.88
2019-03-03T07:08:10.688Z,59.97
2019-03-03T07:10:12.282Z,59.88
2019-03-03T07:12:13.935Z,59.96
2019-03-03T07:14:15.529Z,59.88
2019-03-03T07:16:17.111Z,59.97
2019-03-03T07:18:18.705Z,60.04
2019-03-03T07:20:20.315Z,60.16
2019-03-03T07:22:21.958Z,60.04
2019-03-03T07:24:23.552Z,60.18
2019-03-03T07:26:25.146Z,59.67
2019-03-03T07:28:26.843Z,59.76
2019-03-03T07:30:28.737Z,59.26
2019-03-03T07:32:30.379Z,59.55
2019-03-03T07:34:31.988Z,58.97
2019-03-03T07:36:33.590Z,59.18
2019-03-03T07:38:35.217Z,58.83
2019-03-03T07:40:36.809Z,58.99
2019-03-03T07:42:38.419Z,59.12
2019-03-03T07:44:39.999Z,58.79
2019-03-03T07:46:41.595Z,59.24
2019-03-03T07:48:43.235Z,59.00
2019-03-03T07:50:44.831Z,59.31
2019-03-03T07:52:46.424Z,59.33
2019-03-03T07:54:48.018Z,59.21
2019-03-03T07:56:49.617Z,59.45
2019-03-03T07:58:51.213Z,59.93
2019-03-03T08:00:52.820Z,59.66
2019-03-03T08:02:54.418Z,59.98
2019-03-03T08:04:56.014Z,60.04
2019-03-03T08:06:57.607Z,60.07
2019-03-03T08:08:59.188Z,60.14
2019-03-03T08:11:00.826Z,60.03
2019-03-03T08:13:09.255Z,60.06
2019-03-03T08:15:04.134Z,59.90
2019-03-03T08:17:05.733Z,59.98
2019-03-03T08:19:07.316Z,60.29
2019-03-03T08:21:08.956Z,60.34
2019-03-03T08:23:10.557Z,60.66
2019-03-03T08:25:12.185Z,61.01
2019-03-03T08:27:13.779Z,61.87
2019-03-03T08:29:15.377Z,61.14
2019-03-03T08:31:16.991Z,61.36
2019-03-03T08:33:18.590Z,59.70
2019-03-03T08:35:20.204Z,58.96
2019-03-03T08:37:21.811Z,58.70
2019-03-03T08:39:23.409Z,58.94
2019-03-03T08:41:25.076Z,58.88
2019-03-03T08:43:27.141Z,58.94
2019-03-03T08:45:31.554Z,59.00
2019-03-03T08:47:33.146Z,59.10
2019-03-03T08:49:36.156Z,58.98
2019-03-03T08:51:42.398Z,59.00
2019-03-03T08:53:58.898Z,58.89
2019-03-03T08:56:21.481Z,58.88
2019-03-03T08:58:39.833Z,59.11
2019-03-03T09:00:48.042Z,58.55
2019-03-03T09:02:50.150Z,58.72
2019-03-03T09:05:07.456Z,58.28
2019-03-03T09:07:09.064Z,58.33
2019-03-03T09:09:16.461Z,57.84
2019-03-03T09:11:36.662Z,58.09
2019-03-03T09:13:39.222Z,57.53
2019-03-03T09:15:41.329Z,57.60
2019-03-03T09:17:48.571Z,57.82
2019-03-03T09:19:52.968Z,57.69
2019-03-03T09:21:56.298Z,57.77
2019-03-03T09:24:00.684Z,58.15
2019-03-03T09:26:17.153Z,58.23
2019-03-03T09:28:37.589Z,58.08
2019-03-03T09:30:42.653Z,57.90
2019-03-03T09:32:49.978Z,56.73
2019-03-03T09:35:07.166Z,57.08
2019-03-03T09:37:09.628Z,57.09
2019-03-03T09:39:29.906Z,57.21
2019-03-03T09:41:44.282Z,57.29
2019-03-03T09:43:59.620Z,57.39
2019-03-03T09:46:02.024Z,57.49
2019-03-03T09:48:05.496Z,57.57
2019-03-03T09:50:08.611Z,57.61
2019-03-03T09:52:15.852Z,57.70
2019-03-03T09:54:19.210Z,57.68
2019-03-03T09:56:25.506Z,57.85
2019-03-03T09:58:29.622Z,57.85
2019-03-03T10:00:41.958Z,57.86
2019-03-03T10:02:55.282Z,57.89
2019-03-03T10:05:11.786Z,57.79
2019-03-03T10:07:19.073Z,57.83
2019-03-03T10:09:32.487Z,57.63
2019-03-03T10:11:34.813Z,57.50
2019-03-03T10:13:36.462Z,57.28
2019-03-03T10:15:47.977Z,57.09
2019-03-03T10:18:05.413Z,56.94
2019-03-03T10:20:20.746Z,56.74
2019-03-03T10:22:28.288Z,56.51
2019-03-03T10:24:33.377Z,56.36
2019-03-03T10:26:49.872Z,56.14
2019-03-03T10:29:06.411Z,51.64
2019-03-03T10:31:12.878Z,50.22
2019-03-03T10:33:24.389Z,51.25
2019-03-03T10:35:43.693Z,52.13
2019-03-03T10:37:46.844Z,50.37
2019-03-03T10:39:50.247Z,49.85
2019-03-03T10:41:54.338Z,48.75
2019-03-03T10:43:56.692Z,48.85
2019-03-03T10:46:03.946Z,49.36
2019-03-03T10:48:11.005Z,49.40
2019-03-03T10:50:27.518Z,49.50
2019-03-03T10:52:33.688Z,50.05
2019-03-03T10:54:39.776Z,50.18
2019-03-03T10:56:58.237Z,50.48
2019-03-03T10:59:02.612Z,50.76
2019-03-03T11:01:05.807Z,50.92
2019-03-03T11:03:09.453Z,51.11
2019-03-03T11:05:29.751Z,51.17
2019-03-03T11:07:31.345Z,51.33
2019-03-03T11:09:32.932Z,51.41
2019-03-03T11:11:49.396Z,51.50
2019-03-03T11:13:54.869Z,51.53
2019-03-03T11:16:13.122Z,51.54
2019-03-03T11:18:15.075Z,51.49
2019-03-03T11:20:27.534Z,51.49
2019-03-03T11:22:29.125Z,51.55
2019-03-03T11:24:46.713Z,51.61
2019-03-03T11:26:50.175Z,51.63
2019-03-03T11:28:54.309Z,51.72
2019-03-03T11:30:58.802Z,51.69
2019-03-03T11:33:05.958Z,51.53
2019-03-03T11:35:23.252Z,51.57
2019-03-03T11:37:41.636Z,51.72
2019-03-03T11:39:56.129Z,51.92
2019-03-03T11:41:58.649Z,52.05
2019-03-03T11:44:02.966Z,52.18
2019-03-03T11:46:10.383Z,52.30
2019-03-03T11:48:16.429Z,52.36
2019-03-03T11:50:22.692Z,52.61
2019-03-03T11:52:28.860Z,52.74
2019-03-03T11:54:31.111Z,52.82
2019-03-03T11:56:47.600Z,52.97
2019-03-03T11:58:49.719Z,52.93
2019-03-03T12:01:01.244Z,52.92
2019-03-03T12:03:08.571Z,52.97
2019-03-03T12:05:15.824Z,53.05
2019-03-03T12:07:34.144Z,53.05
2019-03-03T12:09:51.400Z,53.13
2019-03-03T12:11:54.780Z,53.14
2019-03-03T12:13:56.374Z,53.10
2019-03-03T12:16:18.681Z,53.12
2019-03-03T12:18:37.056Z,53.16
2019-03-03T12:20:54.353Z,53.13
2019-03-03T12:23:17.258Z,53.06
2019-03-03T12:25:21.785Z,53.00
2019-03-03T12:27:40.064Z,52.95
2019-03-03T12:29:42.576Z,53.05
2019-03-03T12:31:44.825Z,53.28
2019-03-03T12:33:47.207Z,53.49
2019-03-03T12:35:52.712Z,53.51
2019-03-03T12:37:57.996Z,53.51
2019-03-03T12:40:09.505Z,53.77
2019-03-03T12:42:16.814Z,53.92
2019-03-03T12:44:19.155Z,53.84
2019-03-03T12:46:22.670Z,54.00
2019-03-03T12:48:40.891Z,53.95
2019-03-03T12:50:48.291Z,54.05
2019-03-03T12:52:53.520Z,54.07
2019-03-03T12:54:57.624Z,54.45
2019-03-03T12:56:59.265Z,54.32
2019-03-03T12:59:05.572Z,54.44
2019-03-03T13:01:26.085Z,54.96
2019-03-03T13:03:30.661Z,54.89
2019-03-03T13:05:49.080Z,54.88
2019-03-03T13:07:56.216Z,54.76
2019-03-03T13:09:58.871Z,55.01
2019-03-03T13:12:02.332Z,54.93
2019-03-03T13:14:06.404Z,55.17
2019-03-03T13:16:24.810Z,54.98
2019-03-03T13:18:28.985Z,55.04
2019-03-03T13:20:31.492Z,55.27
2019-03-03T13:22:48.055Z,55.28
2019-03-03T13:24:49.669Z,55.39
2019-03-03T13:26:51.785Z,55.50
2019-03-03T13:28:55.430Z,55.57
2019-03-03T13:30:57.970Z,55.77
2019-03-03T13:33:02.384Z,55.75
2019-03-03T13:35:05.786Z,55.90
2019-03-03T13:37:07.612Z,55.98
2019-03-03T13:39:26.072Z,55.91
2019-03-03T13:41:28.921Z,56.12
2019-03-03T13:43:30.519Z,55.92
2019-03-03T13:45:32.114Z,55.85
2019-03-03T13:47:33.741Z,55.91
2019-03-03T13:49:35.353Z,55.91
2019-03-03T13:51:36.946Z,56.01
2019-03-03T13:53:38.560Z,55.11
2019-03-03T13:55:40.161Z,55.42
2019-03-03T13:57:41.785Z,55.31
2019-03-03T13:59:43.382Z,55.04
2019-03-03T14:01:44.963Z,55.03
2019-03-03T14:03:46.579Z,54.92
2019-03-03T14:05:48.182Z,54.97
2019-03-03T14:07:49.823Z,54.96
2019-03-03T14:09:51.419Z,54.85
2019-03-03T14:11:53.031Z,54.83
2019-03-03T14:13:54.625Z,54.77
2019-03-03T14:15:56.226Z,54.60
2019-03-03T14:17:58.139Z,54.50
2019-03-03T14:19:59.477Z,54.41
2019-03-03T14:22:01.091Z,54.34
2019-03-03T14:24:02.776Z,54.19
2019-03-03T14:26:04.370Z,54.14
2019-03-03T14:28:05.984Z,54.00
2019-03-03T14:30:07.579Z,53.88
2019-03-03T14:32:09.160Z,53.84
2019-03-03T14:34:10.755Z,53.66
2019-03-03T14:36:12.354Z,53.57
2019-03-03T14:38:13.967Z,53.50
2019-03-03T14:40:15.576Z,53.43
2019-03-03T14:42:17.201Z,53.37
2019-03-03T14:44:18.801Z,53.33
2019-03-03T14:46:20.385Z,53.27
2019-03-03T14:48:21.997Z,53.25
2019-03-03T14:50:23.614Z,53.23
2019-03-03T14:52:25.228Z,53.26
2019-03-03T14:54:26.836Z,53.18
2019-03-03T14:56:28.433Z,53.15
2019-03-03T14:58:30.024Z,53.08
2019-03-03T15:00:31.620Z,53.07
2019-03-03T15:02:33.246Z,53.12
2019-03-03T15:04:34.842Z,53.21
2019-03-03T15:06:36.444Z,53.27
2019-03-03T15:08:38.042Z,53.21
2019-03-03T15:10:39.670Z,53.21
2019-03-03T15:12:41.330Z,53.22
2019-03-03T15:14:42.912Z,53.15
2019-03-03T15:16:44.507Z,53.14
2019-03-03T15:18:46.732Z,53.09
2019-03-03T15:20:48.327Z,53.05
2019-03-03T15:22:49.943Z,53.07
2019-03-03T15:24:51.537Z,53.16
2019-03-03T15:26:53.156Z,53.22
2019-03-03T15:28:54.760Z,53.39
2019-03-03T15:30:56.441Z,52.96
2019-03-03T15:32:58.070Z,52.75
2019-03-03T15:34:59.719Z,52.65
2019-03-03T15:37:01.376Z,52.05
2019-03-03T15:39:02.983Z,52.18
2019-03-03T15:41:04.628Z,51.66
2019-03-03T15:43:06.243Z,51.66
2019-03-03T15:45:07.949Z,50.38
2019-03-03T15:47:09.577Z,50.20
2019-03-03T15:49:11.169Z,49.61
2019-03-03T15:51:12.752Z,52.38
2019-03-03T15:53:14.612Z,50.27
2019-03-03T15:55:16.208Z,50.52
2019-03-03T15:57:17.831Z,50.93
2019-03-03T15:59:20.469Z,51.24
2019-03-03T16:01:22.192Z,51.33
2019-03-03T16:03:23.952Z,51.86
2019-03-03T16:05:26.078Z,52.11
2019-03-03T16:07:27.690Z,52.31
2019-03-03T16:09:29.312Z,52.06
2019-03-03T16:11:30.896Z,51.46
2019-03-03T16:13:32.490Z,51.20
2019-03-03T16:15:34.095Z,51.32
2019-03-03T16:17:35.700Z,50.82
2019-03-03T16:19:37.452Z,50.71
2019-03-03T16:21:39.080Z,50.68
2019-03-03T16:23:40.708Z,50.51
2019-03-03T16:25:42.302Z,50.81
2019-03-03T16:27:43.913Z,51.24
2019-03-03T16:29:45.553Z,51.49
2019-03-03T16:31:47.248Z,51.64
2019-03-03T16:33:48.936Z,51.85
2019-03-03T16:35:50.530Z,51.11
2019-03-03T16:37:52.133Z,52.15
2019-03-03T16:39:53.772Z,51.38
2019-03-03T16:41:55.435Z,51.38
2019-03-03T16:43:57.055Z,51.42
2019-03-03T16:45:58.665Z,52.58
2019-03-03T16:48:00.279Z,51.50
2019-03-03T16:50:01.926Z,50.89
2019-03-03T16:52:03.531Z,51.34
2019-03-03T16:54:05.138Z,51.75
2019-03-03T16:56:06.744Z,51.85
2019-03-03T16:58:08.356Z,51.84
2019-03-03T17:00:09.998Z,51.60
2019-03-03T17:02:11.597Z,51.06
2019-03-03T17:04:13.205Z,51.79
2019-03-03T17:06:14.825Z,51.44
2019-03-03T17:08:16.425Z,49.82
2019-03-03T17:10:18.041Z,49.60
2019-03-03T17:12:19.699Z,49.59
2019-03-03T17:14:21.307Z,47.08
2019-03-03T17:16:22.925Z,47.11
2019-03-03T17:18:24.521Z,47.22
2019-03-03T17:20:26.137Z,46.38
2019-03-03T17:22:27.912Z,47.35
2019-03-03T17:24:29.524Z,47.05
2019-03-03T17:26:31.127Z,47.39
2019-03-03T17:28:32.741Z,47.08
2019-03-03T17:30:34.328Z,47.95
2019-03-03T17:32:35.926Z,48.31
2019-03-03T17:34:37.570Z,48.54
2019-03-03T17:36:39.165Z,48.63
2019-03-03T17:38:40.767Z,48.39
2019-03-03T17:40:42.361Z,50.07
2019-03-03T17:42:43.994Z,50.36
2019-03-03T17:44:45.638Z,48.94
2019-03-03T17:46:47.228Z,49.45
2019-03-03T17:48:48.822Z,49.16
2019-03-03T17:50:50.407Z,48.47
2019-03-03T17:52:52.001Z,48.67
2019-03-03T17:54:53.613Z,48.32
2019-03-03T17:56:55.233Z,48.04
2019-03-03T17:58:56.828Z,48.45
2019-03-03T18:00:58.479Z,48.86
2019-03-03T18:03:00.131Z,48.87
2019-03-03T18:05:01.744Z,48.38
2019-03-03T18:07:03.393Z,49.12
2019-03-03T18:09:05.032Z,49.45
2019-03-03T18:11:06.671Z,49.81
2019-03-03T18:13:08.284Z,50.20
2019-03-03T18:15:09.872Z,50.10
2019-03-03T18:17:11.519Z,50.20
2019-03-03T18:19:13.214Z,50.03
2019-03-03T18:21:15.032Z,50.02
2019-03-03T18:23:16.649Z,49.35
2019-03-03T18:25:18.287Z,49.87
2019-03-03T18:27:19.892Z,49.50
2019-03-03T18:29:21.503Z,49.60
2019-03-03T18:31:23.112Z,49.79
2019-03-03T18:33:24.735Z,50.31
2019-03-03T18:35:26.376Z,50.52
2019-03-03T18:37:27.988Z,50.62
2019-03-03T18:39:29.595Z,50.71
2019-03-03T18:41:31.455Z,50.80
2019-03-03T18:43:33.096Z,50.82
2019-03-03T18:45:34.722Z,50.90
2019-03-03T18:47:36.418Z,50.91
2019-03-03T18:49:38.019Z,50.94
2019-03-03T18:51:39.633Z,51.00
2019-03-03T18:53:41.296Z,51.05
2019-03-03T18:55:42.889Z,52.14
2019-03-03T18:57:44.491Z,55.74
2019-03-03T18:59:46.090Z,55.55
2019-03-03T19:01:47.714Z,53.29
2019-03-03T19:03:49.324Z,54.35
2019-03-03T19:05:55.665Z,54.13
2019-03-03T19:07:53.626Z,54.34
2019-03-03T19:09:55.270Z,54.03
2019-03-03T19:11:56.867Z,53.84
2019-03-03T19:13:58.651Z,53.71
2019-03-03T19:16:00.554Z,53.37
2019-03-03T19:18:02.264Z,53.15
2019-03-03T19:20:03.906Z,52.93
2019-03-03T19:22:05.530Z,52.79
2019-03-03T19:24:07.150Z,52.67
2019-03-03T19:26:08.746Z,52.51
2019-03-03T19:28:10.328Z,52.36
2019-03-03T19:30:11.968Z,52.32
2019-03-03T19:32:13.576Z,52.17
2019-03-03T19:34:15.213Z,52.16
2019-03-03T19:36:16.814Z,51.97
2019-03-03T19:38:18.415Z,52.04
2019-03-03T19:40:20.050Z,52.02
2019-03-03T19:42:21.642Z,51.99
2019-03-03T19:44:23.246Z,51.98
2019-03-03T19:46:24.842Z,52.05
2019-03-03T19:48:26.470Z,52.05
2019-03-03T19:50:28.062Z,51.38
2019-03-03T19:52:29.676Z,50.63
2019-03-03T19:54:32.054Z,50.91
2019-03-03T19:56:33.738Z,51.12
2019-03-03T19:58:35.334Z,50.74
2019-03-03T20:00:38.905Z,51.04
2019-03-03T20:02:38.593Z,51.38
2019-03-03T20:04:41.229Z,51.41
2019-03-03T20:06:42.835Z,50.92
2019-03-03T20:08:44.432Z,51.69
2019-03-03T20:10:46.040Z,51.40
2019-03-03T20:12:47.640Z,50.10
2019-03-03T20:14:49.252Z,51.29
2019-03-03T20:16:50.900Z,52.00
2019-03-03T20:18:52.495Z,51.31
2019-03-03T20:20:54.093Z,50.55
2019-03-03T20:22:55.847Z,51.05
2019-03-03T20:24:57.780Z,51.57
2019-03-03T20:26:59.547Z,51.26
2019-03-03T20:29:01.250Z,50.90
2019-03-03T20:31:02.860Z,51.43
2019-03-03T20:33:04.444Z,50.93
2019-03-03T20:35:06.085Z,51.59
2019-03-03T20:37:07.692Z,52.07
2019-03-03T20:39:09.326Z,51.56
2019-03-03T20:41:10.935Z,51.57
2019-03-03T20:43:12.546Z,51.69
2019-03-03T20:45:14.185Z,51.64
2019-03-03T20:47:15.782Z,52.09
2019-03-03T20:49:17.368Z,51.81
2019-03-03T20:51:18.966Z,51.68
2019-03-03T20:53:20.561Z,51.77
2019-03-03T20:55:22.203Z,50.83
2019-03-03T20:57:23.790Z,51.31
2019-03-03T20:59:25.444Z,51.40
2019-03-03T21:01:27.212Z,51.56
2019-03-03T21:03:28.979Z,51.72
2019-03-03T21:05:31.058Z,52.21
2019-03-03T21:07:32.668Z,50.47
2019-03-03T21:09:34.252Z,50.15
2019-03-03T21:11:35.869Z,50.23
2019-03-03T21:13:37.484Z,50.43
2019-03-03T21:15:39.097Z,50.88
2019-03-03T21:17:40.712Z,50.75
2019-03-03T21:19:42.344Z,50.69
2019-03-03T21:21:43.953Z,50.89
2019-03-03T21:23:45.558Z,51.20
2019-03-03T21:25:47.153Z,50.89
2019-03-03T21:27:48.755Z,51.14
2019-03-03T21:29:50.382Z,51.44
2019-03-03T21:31:51.968Z,51.75
2019-03-03T21:33:53.621Z,51.25
2019-03-03T21:35:55.228Z,51.01
2019-03-03T21:37:58.901Z,51.50
2019-03-03T21:39:58.914Z,51.54
2019-03-03T21:42:00.662Z,51.18
2019-03-03T21:44:02.342Z,51.42
2019-03-03T21:46:03.954Z,50.90
2019-03-03T21:48:05.561Z,50.92
2019-03-03T21:50:07.185Z,51.46
2019-03-03T21:52:08.784Z,51.14
2019-03-03T21:54:10.386Z,51.33
2019-03-03T21:56:11.996Z,51.19
2019-03-03T21:58:13.608Z,50.80
2019-03-03T22:00:15.256Z,50.92
2019-03-03T22:02:16.864Z,50.88
2019-03-03T22:04:18.477Z,51.13
2019-03-03T22:06:20.087Z,51.10
2019-03-03T22:08:21.686Z,51.09
2019-03-03T22:10:29.093Z,51.70
2019-03-03T22:12:30.676Z,51.85
2019-03-03T22:14:32.316Z,51.49
2019-03-03T22:16:33.914Z,50.25
2019-03-03T22:18:35.524Z,50.79
2019-03-03T22:20:37.150Z,51.04
2019-03-03T22:22:38.756Z,50.61
2019-03-03T22:24:40.385Z,50.99
2019-03-03T22:26:41.996Z,50.65
2019-03-03T22:28:43.583Z,50.61
2019-03-03T22:30:45.229Z,50.29
2019-03-03T22:32:47.414Z,49.10
2019-03-03T22:34:49.037Z,49.39
2019-03-03T22:36:50.634Z,49.83
2019-03-03T22:38:52.229Z,48.73
2019-03-03T22:40:53.836Z,50.16
2019-03-03T22:42:55.447Z,50.63
2019-03-03T22:44:57.077Z,51.26
2019-03-03T22:46:58.682Z,51.80
2019-03-03T22:49:00.290Z,52.40
2019-03-03T22:51:01.904Z,52.77
2019-03-03T22:53:03.503Z,53.09
2019-03-03T22:55:05.099Z,53.35
2019-03-03T22:57:06.697Z,53.62
2019-03-03T22:59:08.312Z,53.37
2019-03-03T23:01:09.910Z,53.75
2019-03-03T23:03:11.505Z,53.97
2019-03-03T23:05:13.101Z,54.40
2019-03-03T23:07:14.684Z,54.05
2019-03-03T23:09:16.287Z,54.10
2019-03-03T23:11:19.432Z,54.25
2019-03-03T23:13:21.025Z,54.25
2019-03-03T23:15:22.612Z,54.78
2019-03-03T23:17:24.238Z,54.60
2019-03-03T23:19:25.844Z,54.89
2019-03-03T23:21:27.498Z,55.18
2019-03-03T23:23:29.122Z,55.20
2019-03-03T23:25:30.734Z,55.32
2019-03-03T23:27:32.333Z,55.59
2019-03-03T23:29:33.941Z,55.47
2019-03-03T23:31:35.561Z,55.53
2019-03-03T23:33:37.158Z,55.65
2019-03-03T23:35:38.754Z,55.57
2019-03-03T23:37:40.346Z,55.90
2019-03-03T23:39:41.938Z,56.01
2019-03-03T23:41:43.534Z,55.90
2019-03-03T23:43:45.158Z,56.03
2019-03-03T23:45:46.763Z,56.22
2019-03-03T23:47:48.403Z,56.25
2019-03-03T23:49:50.002Z,56.09
2019-03-03T23:51:52.172Z,56.19
2019-03-03T23:53:53.812Z,56.46
2019-03-03T23:55:55.406Z,56.67
2019-03-03T23:57:57.044Z,56.90
2019-03-03T23:59:58.645Z,57.10
